Time;durP1;ratioP1;P1;durP2;ratioP2;P2;SDS_P1;SDS_P2;PMS_P1;PMS_P2;Temp;Humidity;BMP_temperature;BMP_pressure;BME280_temperature;BME280_humidity;BME280_pressure;Samples;Min_cycle;Max_cycle;Signal;HPM_P1;HPM_P2
2021/04/05 04:57:31;;;;;;;4.60;4.20;;;;;;;5.82;74.47;99712.98;1843378;77;22712;-66
2021/04/05 05:00:00;;;;;;;5.00;4.50;;;;;;;6.08;73.42;99722.69;1812428;79;21016;-65
2021/04/05 05:02:30;;;;;;;5.03;4.60;;;;;;;6.35;71.20;99712.02;1812337;79;22264;-65
2021/04/05 05:04:58;;;;;;;4.85;4.30;;;;;;;6.64;70.78;99708.12;1811257;79;21023;-63
2021/04/05 05:07:27;;;;;;;5.35;4.80;;;;;;;6.96;69.46;99708.38;1796156;77;21617;-68
2021/04/05 05:09:55;;;;;;;5.12;4.58;;;;;;;7.27;68.83;99702.59;1802644;79;21630;-60
2021/04/05 05:12:24;;;;;;;8.88;5.03;;;;;;;7.59;67.54;99696.71;1780726;79;21057;-65
2021/04/05 05:14:55;;;;;;;5.20;4.67;;;;;;;7.86;66.20;99698.38;1809883;78;21617;-66
2021/04/05 05:17:33;;;;;;;6.65;5.20;;;;;;;8.11;65.17;99691.92;1806365;78;21372;-63
2021/04/05 05:20:44;;;;;;;5.60;5.00;;;;;;;8.35;64.25;99690.70;1775650;78;21020;-67
2021/04/05 05:23:14;;;;;;;5.45;4.95;;;;;;;8.64;63.80;99692.58;1800088;77;21024;-66
2021/04/05 05:25:43;;;;;;;5.12;4.05;;;;;;;8.93;62.57;99688.39;1721754;79;21565;-63
2021/04/05 05:28:11;;;;;;;6.03;5.53;;;;;;;9.16;61.45;99686.30;1791675;79;21184;-66
2021/04/05 05:30:41;;;;;;;4.92;4.53;;;;;;;9.34;60.84;99679.59;1739742;81;21061;-67
2021/04/05 05:33:10;;;;;;;5.08;4.00;;;;;;;9.53;60.11;99678.09;1761186;80;21467;-67
2021/04/05 05:35:38;;;;;;;4.12;3.77;;;;;;;9.75;59.38;99684.62;1722341;82;21577;-69
2021/04/05 05:38:09;;;;;;;5.08;4.28;;;;;;;9.95;58.62;99672.61;1733048;82;21049;-65
2021/04/05 05:40:37;;;;;;;4.90;4.40;;;;;;;10.13;57.91;99675.39;1731766;82;21202;-60
2021/04/05 05:43:21;;;;;;;10.98;6.87;;;;;;;10.29;56.95;99668.38;1685544;83;21574;-62
2021/04/05 05:46:01;;;;;;;12.03;9.23;;;;;;;10.43;56.78;99661.01;1728931;80;21061;-67
2021/04/05 05:48:44;;;;;;;10.55;7.92;;;;;;;10.63;55.81;99663.70;1733881;80;21631;-68
2021/04/05 05:51:35;;;;;;;7.72;6.08;;;;;;;10.81;55.16;99661.69;1731900;81;21187;-58
2021/04/05 05:54:35;;;;;;;5.40;4.58;;;;;;;10.97;54.44;99664.55;1730203;82;21378;-65
2021/04/05 05:57:30;;;;;;;8.28;6.78;;;;;;;10.98;53.72;99667.52;1707039;82;21668;-60
2021/04/05 06:00:20;;;;;;;5.15;4.67;;;;;;;10.85;52.97;99660.10;1756224;81;21086;-68
2021/04/05 06:03:02;;;;;;;4.87;4.42;;;;;;;10.55;54.15;99651.15;1730381;81;21579;-66
2021/04/05 06:05:46;;;;;;;5.45;4.87;;;;;;;10.35;54.44;99652.86;1730339;81;21479;-63
2021/04/05 06:08:37;;;;;;;5.00;4.50;;;;;;;10.16;54.51;99643.99;1739479;81;21918;-64
2021/04/05 06:11:47;;;;;;;4.30;3.85;;;;;;;10.02;55.09;99646.11;1732930;82;21601;-68
2021/04/05 06:14:43;;;;;;;5.85;5.20;;;;;;;10.08;54.57;99647.52;1736071;82;21595;-62
2021/04/05 06:17:33;;;;;;;5.60;4.35;;;;;;;10.23;54.52;99653.14;1735710;82;21602;-65
2021/04/05 06:20:25;;;;;;;4.90;4.40;;;;;;;10.44;54.66;99650.97;1737160;80;21629;-61
2021/04/05 06:23:26;;;;;;;5.10;4.60;;;;;;;10.72;54.07;99649.27;1742880;80;21692;-60
2021/04/05 06:26:12;;;;;;;5.03;4.37;;;;;;;10.96;53.88;99654.22;1742067;82;20987;-66
2021/04/05 06:29:29;;;;;;;5.58;5.08;;;;;;;11.13;52.37;99650.08;1734028;80;21862;-66
2021/04/05 06:32:29;;;;;;;4.03;3.73;;;;;;;11.15;51.97;99654.72;1734276;81;21678;-64
2021/04/05 06:35:19;;;;;;;4.67;4.25;;;;;;;11.03;51.23;99654.20;1728467;82;21582;-60
2021/04/05 06:37:58;;;;;;;4.12;3.72;;;;;;;10.84;51.51;99653.69;1724877;82;22198;-62
2021/04/05 06:40:32;;;;;;;4.80;4.25;;;;;;;10.78;51.57;99652.80;1740975;82;21024;-64
2021/04/05 06:43:32;;;;;;;5.00;4.00;;;;;;;10.79;51.20;99652.70;1731933;82;21014;-68
2021/04/05 06:46:42;;;;;;;5.28;4.17;;;;;;;10.81;51.36;99653.41;1739847;80;21005;-66
2021/04/05 06:49:44;;;;;;;8.45;4.25;;;;;;;10.85;51.10;99648.84;1726328;82;21567;-65
2021/04/05 06:52:39;;;;;;;4.00;3.70;;;;;;;10.82;51.20;99652.95;1723514;81;22339;-67
2021/04/05 06:55:27;;;;;;;3.55;3.25;;;;;;;10.84;51.12;99651.92;1725297;82;21578;-66
2021/04/05 06:58:12;;;;;;;5.22;3.08;;;;;;;11.01;50.92;99658.67;1714867;82;21643;-64
2021/04/05 07:00:49;;;;;;;3.10;2.90;;;;;;;11.16;49.89;99649.88;1723125;82;21646;-67
2021/04/05 07:03:57;;;;;;;2.80;2.60;;;;;;;11.36;50.01;99646.80;1708618;82;21681;-65
2021/04/05 07:07:09;;;;;;;3.15;2.85;;;;;;;11.63;48.84;99651.95;1722585;82;22078;-64
2021/04/05 07:09:53;;;;;;;3.83;2.62;;;;;;;11.97;47.49;99641.91;1709828;82;20971;-62
2021/04/05 07:13:03;;;;;;;3.10;2.90;;;;;;;12.32;46.45;99636.88;1702367;82;21596;-64
2021/04/05 07:15:49;;;;;;;3.12;2.85;;;;;;;12.55;45.69;99638.69;1709631;82;21009;-65
2021/04/05 07:18:41;;;;;;;2.75;2.55;;;;;;;12.84;44.72;99639.69;1700319;81;21633;-63
2021/04/05 07:21:49;;;;;;;3.22;2.30;;;;;;;13.08;43.93;99631.41;1740255;80;22071;-60
2021/04/05 07:24:59;;;;;;;3.10;2.80;;;;;;;13.37;42.98;99636.30;1730672;82;21512;-67
2021/04/05 07:28:02;;;;;;;2.50;2.30;;;;;;;13.63;42.61;99629.95;1666229;85;21723;-64
2021/04/05 07:30:44;;;;;;;2.20;2.10;;;;;;;13.84;39.80;99615.25;1774908;79;20948;-65
2021/04/05 07:33:30;;;;;;;2.47;2.27;;;;;;;13.99;38.87;99613.26;1758929;79;20937;-68
2021/04/05 07:36:29;;;;;;;3.30;3.00;;;;;;;14.16;39.58;99610.63;1796427;79;22082;-65
2021/04/05 07:39:11;;;;;;;3.42;2.92;;;;;;;14.31;36.13;99605.04;1729803;82;21776;-62
2021/04/05 07:42:00;;;;;;;5.65;5.15;;;;;;;14.23;38.01;99595.63;1711392;82;20905;-67
2021/04/05 07:44:49;;;;;;;4.22;2.77;;;;;;;14.26;37.88;99599.80;1729380;82;21084;-63
2021/04/05 07:47:49;;;;;;;2.85;2.30;;;;;;;14.30;37.04;99589.45;1762322;79;21204;-63
2021/04/05 07:50:30;;;;;;;2.80;2.55;;;;;;;14.29;36.78;99585.16;1785302;78;22225;-67
2021/04/05 07:53:14;;;;;;;2.90;2.70;;;;;;;14.22;37.35;99585.28;1775049;79;21179;-65
2021/04/05 07:55:44;;;;;;;3.27;2.27;;;;;;;14.20;36.64;99578.85;1781993;79;21040;-59
2021/04/05 07:58:29;;;;;;;2.33;2.12;;;;;;;14.27;36.76;99573.97;1761001;79;21218;-67
2021/04/05 08:01:28;;;;;;;4.55;2.87;;;;;;;14.39;36.67;99573.48;1780058;79;21684;-67
2021/04/05 08:04:11;;;;;;;4.87;3.05;;;;;;;14.49;37.16;99570.02;1736465;82;21944;-63
2021/04/05 08:07:31;;;;;;;4.00;3.60;;;;;;;14.55;37.86;99572.16;1746879;81;21528;-61
2021/04/05 08:10:10;;;;;;;2.70;2.45;;;;;;;14.67;36.98;99567.73;1736375;81;21622;-62
2021/04/05 08:12:55;;;;;;;3.58;3.25;;;;;;;14.80;36.50;99553.97;1737570;81;20992;-67
2021/04/05 08:15:35;;;;;;;4.83;4.30;;;;;;;14.88;36.08;99552.04;1743882;80;22397;-63
2021/04/05 08:18:22;;;;;;;3.00;2.70;;;;;;;14.91;35.75;99549.17;1744110;80;21060;-61
2021/04/05 08:21:20;;;;;;;4.53;2.40;;;;;;;14.94;35.29;99544.51;1739390;80;21025;-64
2021/04/05 08:24:14;;;;;;;3.87;2.10;;;;;;;15.01;35.23;99536.50;1727640;81;21064;-66
2021/04/05 08:26:51;;;;;;;3.25;2.85;;;;;;;15.08;34.71;99534.20;1747739;81;21456;-62
2021/04/05 08:29:44;;;;;;;6.17;3.87;;;;;;;15.10;34.63;99517.87;1756425;80;21030;-64
2021/04/05 08:32:39;;;;;;;5.22;3.20;;;;;;;15.12;34.38;99517.74;1739648;80;22177;-68
2021/04/05 08:35:31;;;;;;;2.37;2.00;;;;;;;15.07;34.12;99513.36;1741625;82;21649;-62
2021/04/05 08:38:25;;;;;;;3.65;2.20;;;;;;;15.00;34.06;99515.17;1705422;82;20958;-67
2021/04/05 08:41:23;;;;;;;1.80;1.70;;;;;;;15.03;33.50;99502.28;1746639;80;21611;-63
2021/04/05 08:44:15;;;;;;;2.30;2.10;;;;;;;15.08;33.54;99497.98;1726084;82;21614;-67
2021/04/05 08:46:44;;;;;;;2.10;1.90;;;;;;;15.18;33.95;99501.50;1685189;82;22122;-64
2021/04/05 08:49:19;;;;;;;2.25;2.05;;;;;;;15.31;33.00;99491.63;1741088;80;21653;-64
2021/04/05 08:51:57;;;;;;;2.15;2.02;;;;;;;15.39;33.93;99488.36;1734036;80;21010;-67
2021/04/05 08:54:29;;;;;;;1.70;1.60;;;;;;;15.55;33.76;99480.86;1720868;82;21731;-67
2021/04/05 08:57:04;;;;;;;1.98;1.75;;;;;;;15.64;32.43;99479.59;1729504;82;21654;-68
2021/04/05 08:59:55;;;;;;;1.90;1.80;;;;;;;15.58;32.33;99481.94;1710016;82;21204;-67
2021/04/05 09:02:47;;;;;;;2.20;1.98;;;;;;;15.35;32.33;99475.50;1734055;80;21052;-67
2021/04/05 09:05:23;;;;;;;1.67;1.57;;;;;;;15.10;31.63;99461.49;1733328;80;21223;-65
2021/04/05 09:08:07;;;;;;;2.60;1.42;;;;;;;14.95;31.17;99451.80;1716033;82;20966;-66
2021/04/05 09:11:00;;;;;;;2.08;1.90;;;;;;;14.85;30.00;99452.20;1723886;81;21658;-68
2021/04/05 09:13:44;;;;;;;3.95;3.60;;;;;;;14.71;30.71;99447.77;1720344;82;22061;-67
2021/04/05 09:16:45;;;;;;;3.62;3.35;;;;;;;14.61;31.06;99448.52;1709633;82;20980;-70
2021/04/05 09:19:56;;;;;;;3.15;2.90;;;;;;;14.53;31.47;99444.86;1734310;81;21953;-63
2021/04/05 09:22:53;;;;;;;2.67;2.47;;;;;;;14.45;31.00;99442.86;1721993;83;21605;-65
2021/04/05 09:25:51;;;;;;;5.00;2.87;;;;;;;14.29;31.41;99439.81;1759065;80;21535;-61
2021/04/05 09:28:52;;;;;;;3.30;2.10;;;;;;;14.08;31.79;99439.73;1830288;78;21402;-60
2021/04/05 09:31:44;;;;;;;2.92;2.10;;;;;;;13.89;31.86;99439.08;1767330;81;21897;-64
2021/04/05 09:34:30;;;;;;;2.33;2.22;;;;;;;13.64;32.31;99430.17;1768969;81;21523;-63
2021/04/05 09:37:21;;;;;;;2.60;2.35;;;;;;;13.49;33.14;99432.69;1777339;79;21510;-65
2021/04/05 09:40:07;;;;;;;2.62;2.15;;;;;;;13.42;33.23;99422.34;1786235;78;21679;-65
2021/04/05 09:42:47;;;;;;;2.85;2.40;;;;;;;13.24;32.66;99418.88;1773972;79;21182;-68
2021/04/05 09:45:33;;;;;;;4.17;3.77;;;;;;;13.11;32.88;99416.00;1769996;79;21560;-66
2021/04/05 09:48:17;;;;;;;;;;;;;;;12.99;33.17;99413.37;1805541;79;20988;-63
2021/04/05 09:51:42;;;;;;;3.55;2.02;;;;;;;12.92;33.07;99413.94;1801789;79;21035;-59
2021/04/05 09:54:39;;;;;;;2.80;2.22;;;;;;;12.80;33.58;99409.62;1774649;79;22055;-63
2021/04/05 09:57:14;;;;;;;3.55;2.25;;;;;;;12.72;34.09;99405.48;1780969;79;21194;-61
2021/04/05 09:59:51;;;;;;;2.20;2.00;;;;;;;12.64;34.53;99406.05;1783717;79;21044;-65
2021/04/05 10:02:37;;;;;;;2.42;2.22;;;;;;;12.60;34.95;99404.13;1745129;79;21653;-64
2021/04/05 10:05:07;;;;;;;3.02;2.05;;;;;;;12.58;34.90;99406.02;1773604;79;21103;-62
2021/04/05 10:07:40;;;;;;;2.90;2.30;;;;;;;12.56;34.11;99406.61;1744806;79;21020;-63
2021/04/05 10:10:11;;;;;;;2.30;1.80;;;;;;;12.53;33.90;99402.09;1792373;78;21352;-62
2021/04/05 10:12:40;;;;;;;2.15;1.95;;;;;;;12.53;34.11;99396.86;1744112;81;21056;-61
2021/04/05 10:15:16;;;;;;;2.60;1.98;;;;;;;12.55;33.34;99397.58;1771286;79;21048;-62
2021/04/05 10:17:51;;;;;;;2.90;2.27;;;;;;;12.56;33.39;99388.80;1772930;79;21048;-61
2021/04/05 10:20:26;;;;;;;2.40;2.22;;;;;;;12.55;33.96;99385.83;1782959;79;21107;-60
2021/04/05 10:22:56;;;;;;;3.50;2.55;;;;;;;12.56;34.16;99380.50;1783627;79;21423;-59
2021/04/05 10:25:26;;;;;;;2.85;2.20;;;;;;;12.61;33.82;99377.55;1783516;79;21645;-63
2021/04/05 10:27:57;;;;;;;4.03;3.65;;;;;;;12.56;32.23;99371.35;1784750;79;21029;-61
2021/04/05 10:30:38;;;;;;;5.92;3.15;;;;;;;12.46;32.55;99374.28;1780412;79;21026;-60
2021/04/05 10:33:15;;;;;;;4.83;4.22;;;;;;;12.41;32.53;99372.95;1785392;79;21083;-63
2021/04/05 10:35:54;;;;;;;3.10;2.90;;;;;;;12.37;32.61;99363.72;1792430;79;22627;-62
2021/04/05 10:38:23;;;;;;;4.87;3.85;;;;;;;12.31;32.41;99364.53;1786222;79;21180;-62
2021/04/05 10:40:52;;;;;;;3.62;2.80;;;;;;;12.27;33.03;99366.17;1792985;79;21627;-60
2021/04/05 10:43:31;;;;;;;3.45;3.15;;;;;;;12.26;32.83;99356.67;1791980;79;21050;-64
2021/04/05 10:46:07;;;;;;;2.77;2.55;;;;;;;12.26;33.20;99350.14;1785110;79;21626;-60
2021/04/05 10:48:52;;;;;;;3.62;2.45;;;;;;;12.27;33.57;99346.59;1787133;78;21542;-57
2021/04/05 10:51:39;;;;;;;2.17;2.08;;;;;;;12.25;33.24;99345.40;1791582;78;21521;-65
2021/04/05 10:54:41;;;;;;;2.65;2.40;;;;;;;12.20;33.21;99344.06;1771838;79;21174;-65
2021/04/05 10:57:13;;;;;;;3.30;3.00;;;;;;;12.14;32.75;99342.73;1772298;79;21586;-66
2021/04/05 10:59:52;;;;;;;3.85;3.30;;;;;;;12.17;33.27;99327.33;1771680;79;21032;-64
2021/04/05 11:02:41;;;;;;;3.90;3.50;;;;;;;12.31;34.70;99329.75;1786581;79;21582;-63
2021/04/05 11:05:13;;;;;;;3.87;3.40;;;;;;;12.48;34.12;99311.50;1788925;78;22481;-66
2021/04/05 11:07:41;;;;;;;2.60;2.40;;;;;;;12.58;33.46;99313.31;1786015;79;21095;-65
2021/04/05 11:10:20;;;;;;;2.35;2.10;;;;;;;12.49;32.88;99309.25;1774700;79;21126;-61
2021/04/05 11:12:53;;;;;;;5.72;2.40;;;;;;;12.32;33.09;99313.15;1776685;79;21052;-63
2021/04/05 11:15:23;;;;;;;3.72;3.42;;;;;;;12.08;32.71;99300.13;1770555;79;21197;-66
2021/04/05 11:17:57;;;;;;;2.85;2.45;;;;;;;11.89;33.08;99299.36;1785226;79;21008;-66
2021/04/05 11:20:32;;;;;;;2.62;2.42;;;;;;;11.77;32.85;99294.20;1779839;79;22144;-66
2021/04/05 11:23:12;;;;;;;2.40;2.20;;;;;;;11.71;33.54;99294.13;1795379;79;21602;-65
2021/04/05 11:25:48;;;;;;;3.05;2.67;;;;;;;11.73;34.04;99295.33;1776457;79;21034;-60
2021/04/05 11:28:28;;;;;;;4.78;3.52;;;;;;;11.75;33.84;99282.54;1800886;79;21515;-60
2021/04/05 11:31:01;;;;;;;9.63;2.50;;;;;;;11.80;34.11;99283.07;1772168;79;21064;-64
2021/04/05 11:33:33;;;;;;;2.40;2.20;;;;;;;11.83;33.42;99271.58;1784165;79;21051;-67
2021/04/05 11:36:03;;;;;;;3.45;2.77;;;;;;;11.81;32.43;99279.98;1785178;79;21644;-59
2021/04/05 11:38:31;;;;;;;4.70;2.70;;;;;;;11.67;32.75;99275.27;1778598;79;21681;-66
2021/04/05 11:41:05;;;;;;;2.22;2.05;;;;;;;11.59;33.24;99272.88;1780703;79;21348;-60
2021/04/05 11:43:39;;;;;;;1.80;1.70;;;;;;;11.53;33.61;99274.63;1783014;79;21076;-66
2021/04/05 11:46:12;;;;;;;3.10;1.70;;;;;;;11.50;33.57;99265.72;1792604;78;24450;-65
2021/04/05 11:48:41;;;;;;;4.92;3.42;;;;;;;11.49;33.45;99262.27;1703867;83;21056;-68
2021/04/05 11:51:10;;;;;;;4.00;3.60;;;;;;;11.48;33.04;99259.78;1736513;82;21683;-64
2021/04/05 11:53:52;;;;;;;3.00;2.70;;;;;;;11.45;33.24;99253.01;1729688;82;22075;-62
2021/04/05 11:56:26;;;;;;;2.47;2.27;;;;;;;11.44;33.09;99249.20;1739647;80;21023;-61
2021/04/05 11:59:23;;;;;;;2.87;2.55;;;;;;;11.45;32.57;99239.97;1780753;78;21601;-66
2021/04/05 12:02:05;;;;;;;2.67;2.47;;;;;;;11.45;32.52;99236.53;1661052;83;21903;-65
2021/04/05 12:04:43;;;;;;;4.85;2.87;;;;;;;11.36;32.74;99234.95;1719004;82;20994;-63
2021/04/05 12:07:14;;;;;;;2.20;2.10;;;;;;;11.29;32.58;99228.98;1760910;79;21580;-64
2021/04/05 12:10:07;;;;;;;2.37;2.17;;;;;;;11.18;32.21;99224.56;1783346;79;21067;-67
2021/04/05 12:12:40;;;;;;;4.08;2.58;;;;;;;11.07;32.61;99224.48;1781430;79;21020;-63
2021/04/05 12:15:16;;;;;;;2.55;2.35;;;;;;;10.99;33.71;99221.58;1784320;79;21008;-60
2021/04/05 12:17:51;;;;;;;2.83;2.52;;;;;;;10.96;33.97;99217.89;1781732;79;21590;-67
2021/04/05 12:20:26;;;;;;;2.58;2.37;;;;;;;10.98;34.54;99216.01;1777395;78;21382;-66
2021/04/05 12:22:58;;;;;;;4.22;3.17;;;;;;;10.98;33.98;99211.62;1781688;79;20988;-65
2021/04/05 12:25:34;;;;;;;3.50;3.05;;;;;;;10.95;33.51;99207.11;1778771;78;21175;-67
2021/04/05 12:28:05;;;;;;;4.05;3.72;;;;;;;10.90;33.22;99207.90;1778480;79;22038;-61
2021/04/05 12:30:34;;;;;;;2.47;2.30;;;;;;;10.84;32.98;99197.44;1778517;79;21590;-67
2021/04/05 12:33:04;;;;;;;2.85;2.65;;;;;;;10.80;33.21;99189.48;1777498;79;22244;-67
2021/04/05 12:35:35;;;;;;;3.20;2.90;;;;;;;10.77;34.30;99195.40;1782582;79;21036;-64
2021/04/05 12:38:06;;;;;;;3.30;3.00;;;;;;;10.74;33.91;99189.10;1783865;79;21275;-68
2021/04/05 12:40:37;;;;;;;2.83;2.50;;;;;;;10.69;34.28;99191.56;1780724;79;21270;-66
2021/04/05 12:43:13;;;;;;;12.37;6.58;;;;;;;10.61;35.08;99186.05;1782401;79;20969;-67
2021/04/05 12:45:52;;;;;;;3.40;3.10;;;;;;;10.53;35.62;99185.74;1786833;78;21364;-65
2021/04/05 12:48:32;;;;;;;4.45;3.30;;;;;;;10.49;35.53;99185.59;1781935;79;21618;-65
2021/04/05 12:51:26;;;;;;;2.85;2.65;;;;;;;10.44;35.64;99186.37;1781561;79;21611;-67
2021/04/05 12:54:03;;;;;;;2.80;2.60;;;;;;;10.33;35.52;99184.53;1783919;79;21578;-64
2021/04/05 12:56:31;;;;;;;3.85;3.50;;;;;;;10.27;36.04;99184.11;1782633;79;20982;-64
2021/04/05 12:59:00;;;;;;;3.65;2.60;;;;;;;10.24;36.69;99181.72;1781687;79;22095;-67
2021/04/05 13:01:42;;;;;;;3.25;2.90;;;;;;;10.26;36.33;99173.34;1770983;78;21053;-67
2021/04/05 13:04:11;;;;;;;2.95;2.72;;;;;;;10.28;36.38;99172.30;1786658;79;21642;-62
2021/04/05 13:06:47;;;;;;;3.58;2.72;;;;;;;10.30;36.61;99172.20;1729895;81;21984;-64
2021/04/05 13:09:29;;;;;;;3.67;2.70;;;;;;;10.35;36.70;99163.61;1700243;83;21045;-66
2021/04/05 13:12:06;;;;;;;2.77;2.58;;;;;;;10.45;36.50;99160.70;1724096;83;21357;-66
2021/04/05 13:14:51;;;;;;;2.50;2.30;;;;;;;10.56;36.33;99161.27;1687937;83;21135;-63
2021/04/05 13:17:25;;;;;;;2.37;2.17;;;;;;;10.62;36.03;99159.08;1708625;81;21079;-67
2021/04/05 13:20:09;;;;;;;2.58;2.00;;;;;;;10.71;35.49;99155.47;1712687;82;20957;-66
2021/04/05 13:22:41;;;;;;;2.80;2.52;;;;;;;10.77;35.27;99146.76;1710236;82;21639;-61
2021/04/05 13:25:15;;;;;;;3.83;3.15;;;;;;;10.88;35.34;99145.97;1718824;82;21249;-64
2021/04/05 13:27:47;;;;;;;5.78;3.85;;;;;;;10.99;34.94;99145.57;1720810;82;21562;-67
2021/04/05 13:30:17;;;;;;;6.33;4.53;;;;;;;11.11;35.05;99139.95;1711033;82;21070;-64
2021/04/05 13:32:49;;;;;;;3.20;2.90;;;;;;;11.23;34.70;99133.83;1739341;81;21142;-65
2021/04/05 13:35:22;;;;;;;3.02;2.77;;;;;;;11.30;33.54;99124.62;1732624;81;21158;-66
2021/04/05 13:37:53;;;;;;;2.40;2.25;;;;;;;11.30;33.40;99131.13;1758766;81;22096;-66
2021/04/05 13:40:25;;;;;;;6.80;3.05;;;;;;;11.28;33.54;99133.02;1706316;83;21588;-64
2021/04/05 13:42:56;;;;;;;5.50;3.08;;;;;;;11.26;33.82;99125.78;1722787;82;21480;-65
2021/04/05 13:45:33;;;;;;;11.25;7.17;;;;;;;11.21;33.86;99132.27;1709215;82;21100;-57
2021/04/05 13:48:08;;;;;;;6.47;4.00;;;;;;;11.18;34.20;99126.84;1737188;82;21642;-63
2021/04/05 13:50:38;;;;;;;4.62;3.40;;;;;;;11.12;34.23;99126.45;1740407;81;21334;-64
2021/04/05 13:53:10;;;;;;;6.65;2.85;;;;;;;11.08;34.22;99118.02;1710768;83;21107;-65
2021/04/05 13:55:44;;;;;;;4.87;3.10;;;;;;;11.06;33.97;99117.77;1727886;82;21037;-61
2021/04/05 13:58:15;;;;;;;3.00;2.80;;;;;;;11.07;34.12;99126.78;1733250;81;21081;-65
2021/04/05 14:00:44;;;;;;;4.70;2.90;;;;;;;11.07;34.05;99125.48;1735602;82;21110;-64
2021/04/05 14:03:26;;;;;;;2.80;2.60;;;;;;;11.05;33.84;99127.37;1751075;80;21345;-57
2021/04/05 14:05:53;;;;;;;2.95;2.62;;;;;;;10.99;33.88;99122.59;1722044;82;21712;-68
2021/04/05 14:08:24;;;;;;;4.00;3.45;;;;;;;10.94;34.33;99122.09;1760073;81;21599;-70
2021/04/05 14:11:04;;;;;;;3.10;2.80;;;;;;;10.85;35.03;99117.06;1740701;82;21541;-66
2021/04/05 14:13:39;;;;;;;3.35;3.05;;;;;;;10.77;35.69;99114.67;1760349;81;20989;-66
2021/04/05 14:16:19;;;;;;;3.45;3.15;;;;;;;10.74;35.86;99113.12;1773498;81;21779;-60
2021/04/05 14:18:57;;;;;;;3.20;3.00;;;;;;;10.71;36.30;99111.20;1773349;81;21003;-66
2021/04/05 14:21:26;;;;;;;3.40;3.10;;;;;;;10.69;36.01;99113.45;1773472;81;21620;-62
2021/04/05 14:24:03;;;;;;;3.80;3.15;;;;;;;10.69;35.99;99111.31;1772238;81;21656;-63
2021/04/05 14:26:34;;;;;;;4.75;3.12;;;;;;;10.71;35.75;99109.91;1763320;81;21158;-67
2021/04/05 14:29:03;;;;;;;3.83;3.17;;;;;;;10.70;35.57;99106.47;1729862;83;22272;-68
2021/04/05 14:31:38;;;;;;;3.62;3.22;;;;;;;10.69;35.73;99109.55;1741889;82;21047;-65
2021/04/05 14:34:20;;;;;;;8.53;3.67;;;;;;;10.68;36.18;99103.14;1742749;82;21059;-60
2021/04/05 14:36:58;;;;;;;3.85;3.45;;;;;;;10.65;35.99;99097.68;1742659;82;21121;-64
2021/04/05 14:39:39;;;;;;;5.50;3.50;;;;;;;10.59;36.12;99099.88;1742733;82;21062;-57
2021/04/05 14:42:19;;;;;;;3.65;3.33;;;;;;;10.51;35.70;99088.70;1751569;81;21265;-64
2021/04/05 14:45:06;;;;;;;4.62;3.58;;;;;;;10.43;35.18;99091.02;1731745;81;21598;-66
2021/04/05 14:47:38;;;;;;;4.03;3.27;;;;;;;10.32;35.14;99094.86;1728899;81;21098;-64
